createdAt,value
2018-10-17T00:04:25.225Z,100497.95
2018-10-17T00:09:29.792Z,100495.45
2018-10-17T00:14:34.671Z,100493.34
2018-10-17T00:19:39.236Z,100494.89
2018-10-17T00:24:43.668Z,100497.95
2018-10-17T00:29:48.406Z,100495.05
2018-10-17T00:34:53.092Z,100494.28
2018-10-17T00:39:57.758Z,100490.92
2018-10-17T00:45:02.684Z,100490.67
2018-10-17T00:50:07.341Z,100484.08
2018-10-17T00:55:12.510Z,100487.48
2018-10-17T01:00:16.845Z,100487.27
2018-10-17T01:05:21.205Z,100478.35
2018-10-17T01:10:25.512Z,100470.00
2018-10-17T01:15:30.256Z,100465.86
2018-10-17T01:20:34.951Z,100469.22
2018-10-17T01:25:39.383Z,100469.05
2018-10-17T01:30:43.799Z,100477.87
2018-10-17T01:35:48.133Z,100472.56
2018-10-17T01:40:52.564Z,100469.17
2018-10-17T01:45:57.517Z,100459.18
2018-10-17T01:51:02.013Z,100459.73
2018-10-17T01:56:07.065Z,100451.85
2018-10-17T02:01:12.327Z,100453.33
2018-10-17T02:06:16.622Z,100461.33
2018-10-17T02:11:21.032Z,100464.77
2018-10-17T02:16:25.807Z,100470.17
2018-10-17T02:21:30.709Z,100468.52
2018-10-17T02:26:36.352Z,100467.55
2018-10-17T02:31:41.008Z,100467.20
2018-10-17T02:36:45.646Z,100462.68
2018-10-17T02:41:55.482Z,100465.98
2018-10-17T02:47:00.102Z,100465.14
2018-10-17T02:52:04.725Z,100466.43
2018-10-17T02:57:09.972Z,100461.24
2018-10-17T03:02:14.657Z,100467.06
2018-10-17T03:07:19.506Z,100464.06
2018-10-17T03:12:24.376Z,100465.88
2018-10-17T03:17:28.941Z,100465.80
2018-10-17T03:22:33.891Z,100459.84
2018-10-17T03:27:38.233Z,100458.40
2018-10-17T03:32:42.613Z,100465.40
2018-10-17T03:37:47.900Z,100471.10
2018-10-17T03:42:52.976Z,100477.80
2018-10-17T03:47:57.729Z,100474.98
2018-10-17T03:53:15.652Z,100474.02
2018-10-17T03:58:20.015Z,100475.36
2018-10-17T04:03:24.513Z,100474.48
2018-10-17T04:08:29.528Z,100479.77
2018-10-17T04:13:34.694Z,100490.92
2018-10-17T04:18:39.266Z,100488.00
2018-10-17T04:23:43.669Z,100490.23
2018-10-17T04:28:48.440Z,100493.16
2018-10-17T04:33:52.695Z,100496.74
2018-10-17T04:38:57.844Z,100491.34
2018-10-17T04:44:02.159Z,100494.27
2018-10-17T04:49:08.213Z,100493.53
2018-10-17T04:54:13.980Z,100496.58
2018-10-17T04:59:18.548Z,100505.42
2018-10-17T05:04:23.377Z,100500.41
2018-10-17T05:09:27.642Z,100498.30
2018-10-17T05:14:32.191Z,100501.44
2018-10-17T05:19:36.569Z,100496.80
2018-10-17T05:24:41.142Z,100497.00
2018-10-17T05:29:46.083Z,100492.13
2018-10-17T05:34:50.965Z,100497.38
2018-10-17T05:39:55.476Z,100506.33
2018-10-17T05:44:59.874Z,100502.88
2018-10-17T05:50:04.634Z,100503.84
2018-10-17T05:55:09.395Z,100505.30
2018-10-17T06:00:14.598Z,100514.50
2018-10-17T06:05:19.119Z,100513.25
2018-10-17T06:10:24.000Z,100504.31
2018-10-17T06:15:28.003Z,100505.86
2018-10-17T06:20:32.862Z,100514.84
2018-10-17T06:25:37.697Z,100518.08
2018-10-17T06:30:42.018Z,100515.48
2018-10-17T06:35:46.702Z,100509.30
2018-10-17T06:40:50.984Z,100509.30
2018-10-17T06:45:55.695Z,100514.16
2018-10-17T06:51:00.394Z,100504.89
2018-10-17T06:56:05.804Z,100511.77
2018-10-17T07:01:10.291Z,100512.28
2018-10-17T07:06:14.570Z,100515.76
2018-10-17T07:11:19.830Z,100514.84
2018-10-17T07:16:26.889Z,100528.94
2018-10-17T07:21:31.391Z,100527.15
2018-10-17T07:26:35.771Z,100533.16
2018-10-17T07:31:40.703Z,100527.20
2018-10-17T07:36:45.189Z,100530.29
2018-10-17T07:41:49.876Z,100528.30
2018-10-17T07:46:54.175Z,100526.16
2018-10-17T07:51:59.449Z,100530.64
2018-10-17T07:57:03.809Z,100532.30
2018-10-17T08:02:08.319Z,100532.79
2018-10-17T08:07:12.745Z,100531.19
2018-10-17T08:12:17.933Z,100531.59
2018-10-17T08:17:22.365Z,100525.70
2018-10-17T08:22:26.949Z,100522.77
2018-10-17T08:27:31.596Z,100525.74
2018-10-17T08:32:36.051Z,100531.33
2018-10-17T08:37:41.302Z,100534.81
2018-10-17T08:42:45.183Z,100533.17
2018-10-17T08:47:49.555Z,100536.59
2018-10-17T08:52:54.106Z,100535.52
2018-10-17T08:57:58.921Z,100535.84
2018-10-17T09:03:03.805Z,100536.21
2018-10-17T09:08:08.261Z,100536.39
2018-10-17T09:13:13.237Z,100543.08
2018-10-17T09:18:19.071Z,100541.01
2018-10-17T09:23:27.648Z,100530.75
2018-10-17T09:28:32.186Z,100530.88
2018-10-17T09:33:44.309Z,100528.66
2018-10-17T09:38:49.093Z,100529.42
2018-10-17T09:43:53.670Z,100535.83
2018-10-17T09:48:58.311Z,100538.85
2018-10-17T09:54:02.979Z,100525.91
2018-10-17T09:59:07.813Z,100527.88
2018-10-17T10:04:12.329Z,100520.53
2018-10-17T10:14:31.560Z,100511.79
2018-10-17T10:19:36.103Z,100516.13
2018-10-17T10:24:41.146Z,100511.31
2018-10-17T10:29:46.394Z,100500.73
2018-10-17T10:34:50.802Z,100499.11
2018-10-17T10:39:55.394Z,100495.81
2018-10-17T10:44:59.552Z,100499.08
2018-10-17T10:50:09.592Z,100485.63
2018-10-17T10:55:13.788Z,100488.00
2018-10-17T11:00:21.106Z,100479.29
2018-10-17T11:05:26.353Z,100481.39
2018-10-17T11:10:35.418Z,100477.50
2018-10-17T11:15:40.582Z,100475.06
2018-10-17T11:20:45.288Z,100469.68
2018-10-17T11:25:49.654Z,100463.41
2018-10-17T11:30:54.168Z,100458.27
2018-10-17T11:35:58.660Z,100455.95
2018-10-17T11:41:05.571Z,100450.02
2018-10-17T11:46:14.269Z,100451.51
2018-10-17T11:56:33.728Z,100449.41
2018-10-17T12:01:45.118Z,100445.01
2018-10-17T12:06:49.780Z,100436.23
2018-10-17T12:11:54.744Z,100430.69
2018-10-17T12:16:59.640Z,100424.91
2018-10-17T12:22:04.425Z,100423.43
2018-10-17T12:27:09.792Z,100422.88
2018-10-17T12:32:14.509Z,100412.87
2018-10-17T12:37:20.294Z,100407.80
2018-10-17T12:42:26.094Z,100408.26
2018-10-17T12:47:30.825Z,100399.86
2018-10-17T12:52:35.317Z,100402.27
2018-10-17T12:57:39.850Z,100405.70
2018-10-17T13:02:49.589Z,100407.80
2018-10-17T13:07:55.814Z,100396.11
2018-10-17T13:13:00.790Z,100392.77
2018-10-17T13:18:06.490Z,100387.22
2018-10-17T13:23:11.627Z,100394.03
2018-10-17T13:28:16.680Z,100388.63
2018-10-17T13:33:23.029Z,100379.93
2018-10-17T13:38:28.571Z,100381.02
2018-10-17T13:43:36.647Z,100378.09
2018-10-17T13:48:41.507Z,100375.90
2018-10-17T13:53:46.905Z,100376.42
2018-10-17T13:58:51.970Z,100372.87
2018-10-17T14:03:57.608Z,100376.59
2018-10-17T14:09:03.586Z,100373.52
2018-10-17T14:14:08.802Z,100378.98
2018-10-17T14:19:13.272Z,100372.07
2018-10-17T14:24:18.685Z,100377.03
2018-10-17T14:29:23.595Z,100374.27
2018-10-17T14:34:28.380Z,100374.27
2018-10-17T14:39:33.876Z,100382.27
2018-10-17T14:44:38.666Z,100376.09
2018-10-17T14:49:43.612Z,100377.30
2018-10-17T14:54:47.947Z,100374.05
2018-10-17T14:59:52.701Z,100372.93
2018-10-17T15:04:57.497Z,100371.45
2018-10-17T15:10:01.876Z,100377.59
2018-10-17T15:15:06.886Z,100383.76
2018-10-17T15:20:11.311Z,100379.91
2018-10-17T15:25:16.024Z,100385.74
2018-10-17T15:30:20.801Z,100377.07
2018-10-17T15:35:25.302Z,100386.00
2018-10-17T15:40:29.784Z,100380.83
2018-10-17T15:45:34.110Z,100386.63
2018-10-17T15:50:43.306Z,100392.44
2018-10-17T15:55:48.009Z,100396.48
2018-10-17T16:00:52.191Z,100401.19
2018-10-17T16:05:56.601Z,100398.02
2018-10-17T16:11:01.061Z,100402.45
2018-10-17T16:16:05.907Z,100404.18
2018-10-17T16:21:10.536Z,100407.73
2018-10-17T16:26:15.412Z,100403.41
2018-10-17T16:31:19.634Z,100405.45
2018-10-17T16:36:25.184Z,100407.31
2018-10-17T16:41:29.935Z,100414.08
2018-10-17T16:46:34.446Z,100416.08
2018-10-17T16:51:39.537Z,100425.05
2018-10-17T16:56:43.963Z,100419.55
2018-10-17T17:01:48.344Z,100429.30
2018-10-17T17:06:52.769Z,100429.04
2018-10-17T17:12:10.733Z,100439.41
2018-10-17T17:17:15.239Z,100445.91
2018-10-17T17:22:18.731Z,100441.81
2018-10-17T17:27:22.280Z,100448.15
2018-10-17T17:32:26.020Z,100451.77
2018-10-17T17:37:29.684Z,100450.18
2018-10-17T17:42:33.086Z,100450.17
2018-10-17T17:47:37.308Z,100445.73
2018-10-17T17:52:40.861Z,100441.09
2018-10-17T17:57:44.913Z,100440.69
2018-10-17T18:02:48.452Z,100440.84
2018-10-17T18:07:51.898Z,100442.65
2018-10-17T18:12:55.410Z,100447.67
2018-10-17T18:17:58.916Z,100452.48
2018-10-17T18:23:03.630Z,100458.14
2018-10-17T18:28:08.237Z,100452.31
2018-10-17T18:33:24.778Z,100455.36
2018-10-17T18:38:28.320Z,100463.05
2018-10-17T18:43:37.726Z,100468.23
2018-10-17T18:48:41.252Z,100465.09
2018-10-17T18:53:44.724Z,100474.68
2018-10-17T18:58:48.380Z,100476.22
2018-10-17T19:04:01.192Z,100472.13
2018-10-17T19:09:08.052Z,100480.86
2018-10-17T19:14:11.788Z,100485.92
2018-10-17T19:19:15.685Z,100488.66
2018-10-17T19:24:24.107Z,100490.69
2018-10-17T19:29:27.815Z,100487.95
2018-10-17T19:34:31.310Z,100497.02
2018-10-17T19:39:35.191Z,100498.02
2018-10-17T19:44:38.705Z,100500.12
2018-10-17T19:49:43.049Z,100495.52
2018-10-17T19:54:55.863Z,100502.34
2018-10-17T19:59:59.813Z,100505.79
2018-10-17T20:05:03.453Z,100504.50
2018-10-17T20:10:07.675Z,100506.83
2018-10-17T20:15:12.289Z,100512.30
2018-10-17T20:20:22.989Z,100516.48
2018-10-17T20:25:26.670Z,100511.30
2018-10-17T20:30:40.353Z,100506.30
2018-10-17T20:35:43.821Z,100506.91
2018-10-17T20:40:47.452Z,100515.11
2018-10-17T20:45:51.399Z,100512.27
2018-10-17T20:51:04.223Z,100512.94
2018-10-17T20:56:07.774Z,100514.99
2018-10-17T21:01:11.120Z,100514.94
2018-10-17T21:06:14.879Z,100518.09
2018-10-17T21:11:18.613Z,100507.86
2018-10-17T21:16:22.035Z,100503.95
2018-10-17T21:21:26.388Z,100508.57
2018-10-17T21:26:30.187Z,100508.17
2018-10-17T21:31:47.940Z,100510.02
2018-10-17T21:36:51.714Z,100506.73
2018-10-17T21:41:55.861Z,100513.42
2018-10-17T21:46:59.488Z,100505.28
2018-10-17T21:57:30.388Z,100506.15
2018-10-17T22:02:39.154Z,100511.19
2018-10-17T22:07:43.422Z,100506.41
2018-10-17T22:12:56.139Z,100504.81
2018-10-17T22:17:59.639Z,100494.27
2018-10-17T22:23:03.220Z,100500.90
2018-10-17T22:28:06.590Z,100505.96
2018-10-17T22:33:10.205Z,100508.16
2018-10-17T22:38:13.676Z,100507.13
2018-10-17T22:43:17.257Z,100507.78
2018-10-17T22:48:22.447Z,100511.53
2018-10-17T22:53:26.664Z,100514.04
2018-10-17T22:58:31.159Z,100509.78
2018-10-17T23:03:35.106Z,100510.63
2018-10-17T23:08:38.873Z,100510.08
2018-10-17T23:13:42.419Z,100506.22
2018-10-17T23:18:47.057Z,100504.67
2018-10-17T23:23:51.283Z,100503.89
2018-10-17T23:28:54.934Z,100509.19
2018-10-17T23:33:59.041Z,100501.05
2018-10-17T23:39:02.745Z,100503.06
2018-10-17T23:44:06.468Z,100508.75
2018-10-17T23:49:10.991Z,100498.33
2018-10-17T23:54:15.427Z,100508.02
2018-10-17T23:59:18.829Z,100513.14
